Sacramento / Mc Clellan, CA

11:09 PM PDT on June 25, 2017 (GMT -0700)
McClellan

Weather History for KMCC - May, 2014

Change the Weather History Date:

Sunday, May 11, 2014

  Actual Average (KMHR) Record (KMHR)
Temperature  
Mean Temperature 64 °F -  
Max Temperature 80 °F 78 °F 91 °F (2001)
Min Temperature 48 °F 47 °F 41 °F (2003)
Degree Days  
Heating Degree Days 1    
Growing Degree Days 14 (Base 50)    
Moisture  
Dew Point 34 °F    
Average Humidity 37    
Maximum Humidity 71    
Minimum Humidity 16    
Precipitation  
Precipitation 0.00 in - - ()
Sea Level Pressure  
Sea Level Pressure 30.06 in    
Wind  
Wind Speed 11 mph (NNW)    
Max Wind Speed 23 mph    
Max Gust Speed 33 mph    
Visibility 10 miles    
Events      
Averages and records for this station are not official NWS values.
T = Trace of Precipitation, MM = Missing Value Source: NWS Daily Summary

Daily Weather History Graph

Daily Weather History Graph

Search for Another Location

Airport or City:

Trip Planner

Search our weather history database for the weather conditions in past years. The results will help you decide how hot, cold, wet, or windy it might be!

Date:

Astronomy

May. 11, 2014 Rise Set
Actual Time 5:57 AM PDT 8:07 PM PDT
Civil Twilight 5:27 AM PDT 8:36 PM PDT
Nautical Twilight 4:51 AM PDT 9:13 PM PDT
Astronomical Twilight 4:12 AM PDT 9:52 PM PDT
Moon 5:10 PM PDT (5/11) 4:02 AM PDT (5/11)
Length of Visible Light 15h 09m
Length of Day
14h 10m
Waxing Gibbous, 90% of the Moon is Illuminated
May 11
Waxing Gibbous
May 14
Full
May 21
Last Quarter
May 28
New
Jun 5
First Quarter

Hourly Weather History & Observations

Time (PDT) Temp. Dew Point Humidity Pressure Visibility Wind Dir Wind Speed Gust Speed Precip Events Conditions
12:15 AM 53.6 °F 35.6 °F 51% 30.07 in 10.0 mi NW 3.5 mph - N/A   Clear
12:35 AM 55.4 °F 37.4 °F 51% 30.08 in 10.0 mi NNW 4.6 mph - N/A   Clear
12:55 AM 51.8 °F 37.4 °F 58% 30.09 in 10.0 mi NW 4.6 mph - N/A   Clear
1:15 AM 50.0 °F 37.4 °F 62% 30.09 in 10.0 mi NW 9.2 mph - N/A   Clear
1:35 AM 50.0 °F 39.2 °F 66% 30.09 in 10.0 mi NW 8.1 mph - N/A   Clear
1:55 AM 50.0 °F 39.2 °F 66% 30.10 in 10.0 mi NNW 6.9 mph - N/A   Clear
2:15 AM 48.2 °F 39.2 °F 71% 30.10 in 10.0 mi NW 8.1 mph - N/A   Clear
2:35 AM 50.0 °F 39.2 °F 66% 30.10 in 10.0 mi NNW 8.1 mph - N/A   Clear
2:55 AM 48.2 °F 37.4 °F 66% 30.10 in 10.0 mi North 9.2 mph - N/A   Clear
3:15 AM 48.2 °F 37.4 °F 66% 30.10 in 10.0 mi North 8.1 mph - N/A   Clear
3:35 AM 48.2 °F 35.6 °F 62% 30.10 in 10.0 mi North 6.9 mph - N/A   Clear
3:55 AM 48.2 °F 35.6 °F 62% 30.10 in 10.0 mi NNW 4.6 mph - N/A   Clear
4:15 AM 48.2 °F 37.4 °F 66% 30.10 in 10.0 mi NNW 6.9 mph - N/A   Clear
4:35 AM 50.0 °F 37.4 °F 62% 30.10 in 10.0 mi NNW 8.1 mph - N/A   Clear
4:55 AM 48.2 °F 37.4 °F 66% 30.09 in 10.0 mi NNW 9.2 mph - N/A   Clear
5:15 AM 48.2 °F 37.4 °F 66% 30.09 in 10.0 mi NNW 10.4 mph - N/A   Clear
5:35 AM 50.0 °F 37.4 °F 62% 30.09 in 10.0 mi NNW 10.4 mph - N/A   Clear
5:55 AM 50.0 °F 37.4 °F 62% 30.09 in 10.0 mi NNW 11.5 mph - N/A   Clear
6:15 AM 50.0 °F 35.6 °F 58% 30.09 in 10.0 mi NNW 10.4 mph 18.4 mph N/A   Clear
6:35 AM 50.0 °F 37.4 °F 62% 30.09 in 10.0 mi NNW 12.7 mph - N/A   Clear
6:55 AM 51.8 °F 37.4 °F 58% 30.10 in 10.0 mi NNW 13.8 mph 18.4 mph N/A   Clear
7:15 AM 53.6 °F 35.6 °F 51% 30.10 in 10.0 mi NNW 12.7 mph 19.6 mph N/A   Clear
7:35 AM 55.4 °F 35.6 °F 47% 30.10 in 10.0 mi NNW 15.0 mph 19.6 mph N/A   Clear
7:55 AM 57.2 °F 35.6 °F 44% 30.11 in 10.0 mi NNW 17.3 mph - N/A   Clear
8:15 AM 60.8 °F 35.6 °F 39% 30.11 in 10.0 mi NNW 16.1 mph 23.0 mph N/A   Clear
8:35 AM 62.6 °F 33.8 °F 34% 30.11 in 10.0 mi NNW 15.0 mph 24.2 mph N/A   Clear
8:55 AM 64.4 °F 32.0 °F 30% 30.10 in 10.0 mi NNW 20.7 mph 26.5 mph N/A   Clear
9:15 AM 66.2 °F 32.0 °F 28% 30.10 in 10.0 mi NNW 16.1 mph 29.9 mph N/A   Clear
9:35 AM 66.2 °F 30.2 °F 26% 30.10 in 10.0 mi NNW 21.9 mph 33.4 mph N/A   Clear
9:55 AM 66.2 °F 28.4 °F 24% 30.10 in 10.0 mi NNW 23.0 mph 31.1 mph N/A   Clear
10:15 AM 68.0 °F 28.4 °F 23% 30.10 in 10.0 mi North 19.6 mph 29.9 mph N/A   Clear
10:35 AM 68.0 °F 28.4 °F 23% 30.10 in 10.0 mi NNW 21.9 mph 31.1 mph N/A   Clear
10:55 AM 68.0 °F 28.4 °F 23% 30.10 in 10.0 mi North 20.7 mph 31.1 mph N/A   Clear
11:15 AM 71.6 °F 30.2 °F 22% 30.10 in 10.0 mi NNW 19.6 mph 31.1 mph N/A   Clear
11:35 AM 71.6 °F 28.4 °F 20% 30.09 in 10.0 mi North 19.6 mph 27.6 mph N/A   Clear
11:55 AM 73.4 °F 30.2 °F 20% 30.08 in 10.0 mi NNW 20.7 mph 27.6 mph N/A   Clear
12:15 PM 73.4 °F 30.2 °F 20% 30.08 in 10.0 mi NW 19.6 mph 28.8 mph N/A   Clear
12:35 PM 73.4 °F 30.2 °F 20% 30.07 in 10.0 mi NW 19.6 mph 26.5 mph N/A   Clear
12:55 PM 75.2 °F 30.2 °F 19% 30.06 in 10.0 mi NNW 17.3 mph 25.3 mph N/A   Clear
1:15 PM 75.2 °F 30.2 °F 19% 30.05 in 10.0 mi NW 21.9 mph 29.9 mph N/A   Clear
1:35 PM 75.2 °F 32.0 °F 21% 30.05 in 10.0 mi NNW 17.3 mph 25.3 mph N/A   Clear
1:55 PM 75.2 °F 30.2 °F 19% 30.04 in 10.0 mi NNW 17.3 mph 23.0 mph N/A   Clear
2:15 PM 77.0 °F 32.0 °F 19% 30.03 in 10.0 mi NW 15.0 mph 26.5 mph N/A   Clear
2:35 PM 77.0 °F 32.0 °F 19% 30.03 in 10.0 mi NW 18.4 mph 25.3 mph N/A   Clear
2:55 PM 78.8 °F 32.0 °F 18% 30.02 in 10.0 mi WNW 17.3 mph 23.0 mph N/A   Clear
3:15 PM 78.8 °F 32.0 °F 18% 30.02 in 10.0 mi NW 17.3 mph - N/A   Clear
3:35 PM 78.8 °F 32.0 °F 18% 30.01 in 10.0 mi NW 13.8 mph 24.2 mph N/A   Clear
3:55 PM 80.6 °F 30.2 °F 16% 30.00 in 10.0 mi NW 18.4 mph 23.0 mph N/A   Clear
4:15 PM 80.6 °F 30.2 °F 16% 30.00 in 10.0 mi NW 16.1 mph 23.0 mph N/A   Clear
4:35 PM 80.6 °F 30.2 °F 16% 30.00 in 10.0 mi WNW 17.3 mph 23.0 mph N/A   Clear
4:55 PM 80.6 °F 30.2 °F 16% 29.99 in 10.0 mi NW 15.0 mph - N/A   Clear
5:15 PM 80.6 °F 30.2 °F 16% 29.99 in 10.0 mi NNW 15.0 mph 23.0 mph N/A   Clear
5:35 PM 80.6 °F 30.2 °F 16% 29.99 in 10.0 mi NW 13.8 mph 24.2 mph N/A   Clear
5:55 PM 80.6 °F 30.2 °F 16% 29.98 in 10.0 mi NW 17.3 mph - N/A   Clear
6:15 PM 80.6 °F 30.2 °F 16% 29.98 in 10.0 mi NW 15.0 mph 18.4 mph N/A   Clear
6:35 PM 78.8 °F 28.4 °F 16% 29.98 in 10.0 mi NNW 13.8 mph 20.7 mph N/A   Clear
6:55 PM 78.8 °F 30.2 °F 17% 29.98 in 10.0 mi NW 13.8 mph 18.4 mph N/A   Clear
7:15 PM 77.0 °F 30.2 °F 18% 29.98 in 10.0 mi NW 13.8 mph 17.3 mph N/A   Clear
7:35 PM 77.0 °F 32.0 °F 19% 29.98 in 10.0 mi NNW 9.2 mph - N/A   Clear
7:55 PM 75.2 °F 32.0 °F 21% 29.99 in 10.0 mi NNW 6.9 mph - N/A   Clear
8:15 PM 71.6 °F 35.6 °F 27% 29.99 in 10.0 mi North 4.6 mph - N/A   Clear
8:35 PM 66.2 °F 37.4 °F 35% 30.00 in 10.0 mi North 8.1 mph - N/A   Clear
8:55 PM 66.2 °F 37.4 °F 35% 30.00 in 10.0 mi North 10.4 mph - N/A   Clear
9:15 PM 66.2 °F 37.4 °F 35% 30.01 in 10.0 mi North 6.9 mph - N/A   Clear
9:35 PM 66.2 °F 37.4 °F 35% 30.02 in 10.0 mi North 4.6 mph - N/A   Clear
9:55 PM 66.2 °F 35.6 °F 32% 30.03 in 10.0 mi North 5.8 mph - N/A   Clear
10:15 PM 64.4 °F 35.6 °F 34% 30.03 in 10.0 mi North 4.6 mph - N/A   Clear
10:35 PM 62.6 °F 37.4 °F 39% 30.03 in 10.0 mi NW 3.5 mph - N/A   Clear
10:55 PM 64.4 °F 35.6 °F 34% 30.03 in 10.0 mi NNW 4.6 mph - N/A   Clear
11:15 PM 62.6 °F 37.4 °F 39% 30.03 in 10.0 mi NNW 5.8 mph - N/A   Clear
11:35 PM 59.0 °F 39.2 °F 48% 30.04 in 10.0 mi West 6.9 mph - N/A   Clear
11:55 PM 59.0 °F 39.2 °F 48% 30.04 in 10.0 mi West 3.5 mph - N/A   Clear